sensor_id;sensor_type;location;lat;lon;timestamp;temperature;humidity
23744;DHT22;12052;53.478;10.182;2023-02-28T00:00:26;2.90;99.90
23744;DHT22;12052;53.478;10.182;2023-02-28T00:02:52;2.90;99.90
23744;DHT22;12052;53.478;10.182;2023-02-28T00:05:20;2.90;99.90
23744;DHT22;12052;53.478;10.182;2023-02-28T00:07:46;2.80;99.90
23744;DHT22;12052;53.478;10.182;2023-02-28T00:10:15;2.80;99.90
23744;DHT22;12052;53.478;10.182;2023-02-28T00:12:52;2.70;99.90
23744;DHT22;12052;53.478;10.182;2023-02-28T00:15:19;2.70;99.90
23744;DHT22;12052;53.478;10.182;2023-02-28T00:17:45;2.60;99.90
23744;DHT22;12052;53.478;10.182;2023-02-28T00:20:12;2.60;99.90
23744;DHT22;12052;53.478;10.182;2023-02-28T00:22:40;2.50;99.90
23744;DHT22;12052;53.478;10.182;2023-02-28T00:25:07;2.40;99.90
23744;DHT22;12052;53.478;10.182;2023-02-28T00:27:34;2.40;99.90
23744;DHT22;12052;53.478;10.182;2023-02-28T00:29:59;2.30;99.90
23744;DHT22;12052;53.478;10.182;2023-02-28T00:32:26;2.30;99.90
23744;DHT22;12052;53.478;10.182;2023-02-28T00:34:52;2.10;99.90
23744;DHT22;12052;53.478;10.182;2023-02-28T00:37:17;2.10;99.90
23744;DHT22;12052;53.478;10.182;2023-02-28T00:39:43;2.00;99.90
23744;DHT22;12052;53.478;10.182;2023-02-28T00:42:09;2.00;99.90
23744;DHT22;12052;53.478;10.182;2023-02-28T00:44:34;1.90;99.90
23744;DHT22;12052;53.478;10.182;2023-02-28T00:47:00;1.90;99.90
23744;DHT22;12052;53.478;10.182;2023-02-28T00:49:27;1.80;99.90
23744;DHT22;12052;53.478;10.182;2023-02-28T00:51:53;1.80;99.90
23744;DHT22;12052;53.478;10.182;2023-02-28T00:54:20;1.70;99.90
23744;DHT22;12052;53.478;10.182;2023-02-28T00:56:45;1.60;99.90
23744;DHT22;12052;53.478;10.182;2023-02-28T00:59:13;1.60;99.90
23744;DHT22;12052;53.478;10.182;2023-02-28T01:01:40;1.50;99.90
23744;DHT22;12052;53.478;10.182;2023-02-28T01:04:06;1.50;99.90
23744;DHT22;12052;53.478;10.182;2023-02-28T01:06:32;1.40;99.90
23744;DHT22;12052;53.478;10.182;2023-02-28T01:08:58;1.40;99.90
23744;DHT22;12052;53.478;10.182;2023-02-28T01:11:24;1.30;99.90
23744;DHT22;12052;53.478;10.182;2023-02-28T01:13:50;1.20;99.90
23744;DHT22;12052;53.478;10.182;2023-02-28T01:16:16;1.20;99.90
23744;DHT22;12052;53.478;10.182;2023-02-28T01:18:43;1.10;99.90
23744;DHT22;12052;53.478;10.182;2023-02-28T01:21:12;1.10;99.90
23744;DHT22;12052;53.478;10.182;2023-02-28T01:23:38;1.10;99.90
23744;DHT22;12052;53.478;10.182;2023-02-28T01:26:11;1.00;99.90
23744;DHT22;12052;53.478;10.182;2023-02-28T01:28:37;1.00;99.90
23744;DHT22;12052;53.478;10.182;2023-02-28T01:31:03;0.90;99.90
23744;DHT22;12052;53.478;10.182;2023-02-28T01:33:28;0.90;99.90
23744;DHT22;12052;53.478;10.182;2023-02-28T01:36:01;0.90;99.90
23744;DHT22;12052;53.478;10.182;2023-02-28T01:38:27;0.80;99.90
23744;DHT22;12052;53.478;10.182;2023-02-28T01:40:53;0.80;99.90
23744;DHT22;12052;53.478;10.182;2023-02-28T01:45:50;0.70;99.90
23744;DHT22;12052;53.478;10.182;2023-02-28T01:48:16;0.70;99.90
23744;DHT22;12052;53.478;10.182;2023-02-28T01:50:45;0.60;99.90
23744;DHT22;12052;53.478;10.182;2023-02-28T01:53:16;0.50;99.90
23744;DHT22;12052;53.478;10.182;2023-02-28T01:55:46;0.50;99.90
23744;DHT22;12052;53.478;10.182;2023-02-28T01:58:13;0.50;99.90
23744;DHT22;12052;53.478;10.182;2023-02-28T02:00:38;0.50;99.90
23744;DHT22;12052;53.478;10.182;2023-02-28T02:03:10;0.40;99.90
23744;DHT22;12052;53.478;10.182;2023-02-28T02:05:39;0.40;99.90
23744;DHT22;12052;53.478;10.182;2023-02-28T02:08:39;0.40;99.90
23744;DHT22;12052;53.478;10.182;2023-02-28T02:11:00;0.40;99.90
23744;DHT22;12052;53.478;10.182;2023-02-28T02:13:58;0.40;99.90
23744;DHT22;12052;53.478;10.182;2023-02-28T02:19:21;0.30;99.90
23744;DHT22;12052;53.478;10.182;2023-02-28T02:22:36;0.30;99.90
23744;DHT22;12052;53.478;10.182;2023-02-28T02:30:44;0.20;99.90
23744;DHT22;12052;53.478;10.182;2023-02-28T02:38:44;0.10;99.90
23744;DHT22;12052;53.478;10.182;2023-02-28T02:44:18;0.10;99.90
23744;DHT22;12052;53.478;10.182;2023-02-28T02:46:47;0.00;99.90
23744;DHT22;12052;53.478;10.182;2023-02-28T02:49:21;0.00;99.90
23744;DHT22;12052;53.478;10.182;2023-02-28T02:51:48;0.00;99.90
23744;DHT22;12052;53.478;10.182;2023-02-28T02:54:18;0.00;99.90
23744;DHT22;12052;53.478;10.182;2023-02-28T02:56:47;0.00;99.90
23744;DHT22;12052;53.478;10.182;2023-02-28T02:59:16;0.00;99.90
23744;DHT22;12052;53.478;10.182;2023-02-28T03:01:53;-0.10;99.90
23744;DHT22;12052;53.478;10.182;2023-02-28T03:04:21;-0.10;99.90
23744;DHT22;12052;53.478;10.182;2023-02-28T03:06:49;-0.10;99.90
23744;DHT22;12052;53.478;10.182;2023-02-28T03:09:15;-0.20;99.90
23744;DHT22;12052;53.478;10.182;2023-02-28T03:11:41;-0.20;99.90
23744;DHT22;12052;53.478;10.182;2023-02-28T03:22:49;-0.20;99.90
23744;DHT22;12052;53.478;10.182;2023-02-28T03:30:58;-0.40;99.90
23744;DHT22;12052;53.478;10.182;2023-02-28T03:33:35;-0.40;99.90
23744;DHT22;12052;53.478;10.182;2023-02-28T03:36:16;-0.40;99.90
23744;DHT22;12052;53.478;10.182;2023-02-28T03:38:53;-0.40;99.90
23744;DHT22;12052;53.478;10.182;2023-02-28T03:41:22;-0.40;99.90
23744;DHT22;12052;53.478;10.182;2023-02-28T03:43:59;-0.40;99.90
23744;DHT22;12052;53.478;10.182;2023-02-28T03:46:31;-0.50;99.90
23744;DHT22;12052;53.478;10.182;2023-02-28T03:49:06;-0.50;99.90
23744;DHT22;12052;53.478;10.182;2023-02-28T03:51:34;-0.50;99.90
23744;DHT22;12052;53.478;10.182;2023-02-28T03:54:05;-0.60;99.90
23744;DHT22;12052;53.478;10.182;2023-02-28T03:56:43;-0.60;99.90
23744;DHT22;12052;53.478;10.182;2023-02-28T03:59:32;-0.60;99.90
23744;DHT22;12052;53.478;10.182;2023-02-28T04:02:00;-0.60;99.90
23744;DHT22;12052;53.478;10.182;2023-02-28T04:04:25;-0.60;99.90
23744;DHT22;12052;53.478;10.182;2023-02-28T04:06:52;-0.60;99.90
23744;DHT22;12052;53.478;10.182;2023-02-28T04:09:18;-0.60;99.90
23744;DHT22;12052;53.478;10.182;2023-02-28T04:11:48;-0.70;99.90
23744;DHT22;12052;53.478;10.182;2023-02-28T04:14:16;-0.70;99.90
23744;DHT22;12052;53.478;10.182;2023-02-28T04:16:44;-0.70;99.90
23744;DHT22;12052;53.478;10.182;2023-02-28T04:19:11;-0.70;99.90
23744;DHT22;12052;53.478;10.182;2023-02-28T04:21:44;-0.70;99.90
23744;DHT22;12052;53.478;10.182;2023-02-28T04:24:15;-0.80;99.90
23744;DHT22;12052;53.478;10.182;2023-02-28T04:26:46;-0.80;99.90
23744;DHT22;12052;53.478;10.182;2023-02-28T04:29:13;-0.80;99.90
23744;DHT22;12052;53.478;10.182;2023-02-28T04:31:39;-0.80;99.90
23744;DHT22;12052;53.478;10.182;2023-02-28T04:34:05;-0.80;99.90
23744;DHT22;12052;53.478;10.182;2023-02-28T04:36:32;-0.80;99.90
23744;DHT22;12052;53.478;10.182;2023-02-28T04:38:57;-0.80;99.90
23744;DHT22;12052;53.478;10.182;2023-02-28T04:41:24;-0.90;99.90
23744;DHT22;12052;53.478;10.182;2023-02-28T04:43:53;-0.90;99.90
23744;DHT22;12052;53.478;10.182;2023-02-28T04:46:19;-0.90;99.90
23744;DHT22;12052;53.478;10.182;2023-02-28T04:48:45;-0.90;99.90
23744;DHT22;12052;53.478;10.182;2023-02-28T04:51:13;-0.90;99.90
23744;DHT22;12052;53.478;10.182;2023-02-28T04:53:40;-1.00;99.90
23744;DHT22;12052;53.478;10.182;2023-02-28T04:56:07;-1.00;99.90
23744;DHT22;12052;53.478;10.182;2023-02-28T04:58:34;-1.00;99.90
23744;DHT22;12052;53.478;10.182;2023-02-28T05:01:15;-1.00;99.90
23744;DHT22;12052;53.478;10.182;2023-02-28T05:03:43;-1.00;99.90
23744;DHT22;12052;53.478;10.182;2023-02-28T05:06:09;-1.10;99.90
23744;DHT22;12052;53.478;10.182;2023-02-28T05:08:35;-1.10;99.90
23744;DHT22;12052;53.478;10.182;2023-02-28T05:11:01;-1.10;99.90
23744;DHT22;12052;53.478;10.182;2023-02-28T05:13:28;-1.10;99.90
23744;DHT22;12052;53.478;10.182;2023-02-28T05:15:54;-1.10;99.90
23744;DHT22;12052;53.478;10.182;2023-02-28T05:18:21;-1.10;99.90
23744;DHT22;12052;53.478;10.182;2023-02-28T05:20:47;-1.20;99.90
23744;DHT22;12052;53.478;10.182;2023-02-28T05:23:13;-1.20;99.90
23744;DHT22;12052;53.478;10.182;2023-02-28T05:25:41;-1.20;99.90
23744;DHT22;12052;53.478;10.182;2023-02-28T05:28:07;-1.20;99.90
23744;DHT22;12052;53.478;10.182;2023-02-28T05:30:33;-1.20;99.90
23744;DHT22;12052;53.478;10.182;2023-02-28T05:32:58;-1.20;99.90
23744;DHT22;12052;53.478;10.182;2023-02-28T05:35:24;-1.20;99.90
23744;DHT22;12052;53.478;10.182;2023-02-28T05:37:50;-1.30;99.90
23744;DHT22;12052;53.478;10.182;2023-02-28T05:40:16;-1.30;99.90
23744;DHT22;12052;53.478;10.182;2023-02-28T05:42:42;-1.30;99.90
23744;DHT22;12052;53.478;10.182;2023-02-28T05:45:09;-1.30;99.90
23744;DHT22;12052;53.478;10.182;2023-02-28T05:47:35;-1.30;99.90
23744;DHT22;12052;53.478;10.182;2023-02-28T05:50:01;-1.30;99.90
23744;DHT22;12052;53.478;10.182;2023-02-28T05:52:27;-1.30;99.90
23744;DHT22;12052;53.478;10.182;2023-02-28T05:54:55;-1.40;99.90
23744;DHT22;12052;53.478;10.182;2023-02-28T05:57:21;-1.40;99.90
23744;DHT22;12052;53.478;10.182;2023-02-28T05:59:46;-1.40;99.90
23744;DHT22;12052;53.478;10.182;2023-02-28T06:02:13;-1.40;99.90
23744;DHT22;12052;53.478;10.182;2023-02-28T06:04:39;-1.40;99.90
23744;DHT22;12052;53.478;10.182;2023-02-28T06:07:06;-1.40;99.90
23744;DHT22;12052;53.478;10.182;2023-02-28T06:09:32;-1.40;99.90
23744;DHT22;12052;53.478;10.182;2023-02-28T06:11:59;-1.40;99.90
23744;DHT22;12052;53.478;10.182;2023-02-28T06:14:25;-1.40;99.90
23744;DHT22;12052;53.478;10.182;2023-02-28T06:16:51;-1.50;99.90
23744;DHT22;12052;53.478;10.182;2023-02-28T06:19:16;-1.40;99.90
23744;DHT22;12052;53.478;10.182;2023-02-28T06:21:42;-1.50;99.90
23744;DHT22;12052;53.478;10.182;2023-02-28T06:24:10;-1.50;99.90
23744;DHT22;12052;53.478;10.182;2023-02-28T06:26:36;-1.50;99.90
23744;DHT22;12052;53.478;10.182;2023-02-28T06:29:02;-1.50;99.90
23744;DHT22;12052;53.478;10.182;2023-02-28T06:31:28;-1.50;99.90
23744;DHT22;12052;53.478;10.182;2023-02-28T06:33:54;-1.50;99.90
23744;DHT22;12052;53.478;10.182;2023-02-28T06:36:20;-1.50;99.90
23744;DHT22;12052;53.478;10.182;2023-02-28T06:38:46;-1.50;99.90
23744;DHT22;12052;53.478;10.182;2023-02-28T06:41:18;-1.50;99.90
23744;DHT22;12052;53.478;10.182;2023-02-28T06:43:44;-1.50;99.90
23744;DHT22;12052;53.478;10.182;2023-02-28T06:46:14;-1.50;99.90
23744;DHT22;12052;53.478;10.182;2023-02-28T06:48:44;-1.50;99.90
23744;DHT22;12052;53.478;10.182;2023-02-28T06:51:13;-1.50;99.90
23744;DHT22;12052;53.478;10.182;2023-02-28T06:53:40;-1.40;99.90
23744;DHT22;12052;53.478;10.182;2023-02-28T06:56:07;-1.40;99.90
23744;DHT22;12052;53.478;10.182;2023-02-28T06:58:34;-1.40;99.90
23744;DHT22;12052;53.478;10.182;2023-02-28T07:01:00;-1.30;99.90
23744;DHT22;12052;53.478;10.182;2023-02-28T07:03:26;-1.30;99.90
23744;DHT22;12052;53.478;10.182;2023-02-28T07:05:52;-1.30;99.90
23744;DHT22;12052;53.478;10.182;2023-02-28T07:08:17;-1.20;99.90
23744;DHT22;12052;53.478;10.182;2023-02-28T07:10:43;-1.20;99.90
23744;DHT22;12052;53.478;10.182;2023-02-28T07:13:09;-1.10;99.90
23744;DHT22;12052;53.478;10.182;2023-02-28T07:15:36;-1.10;99.90
23744;DHT22;12052;53.478;10.182;2023-02-28T07:18:02;-1.00;99.90
23744;DHT22;12052;53.478;10.182;2023-02-28T07:20:29;-1.00;99.90
23744;DHT22;12052;53.478;10.182;2023-02-28T07:22:54;-0.90;99.90
23744;DHT22;12052;53.478;10.182;2023-02-28T07:25:26;-0.80;99.90
23744;DHT22;12052;53.478;10.182;2023-02-28T07:27:52;-0.80;99.90
23744;DHT22;12052;53.478;10.182;2023-02-28T07:30:18;-0.70;99.90
23744;DHT22;12052;53.478;10.182;2023-02-28T07:32:44;-0.60;99.90
23744;DHT22;12052;53.478;10.182;2023-02-28T07:35:10;-0.60;99.90
23744;DHT22;12052;53.478;10.182;2023-02-28T07:37:35;-0.50;99.90
23744;DHT22;12052;53.478;10.182;2023-02-28T07:40:11;-0.40;99.90
23744;DHT22;12052;53.478;10.182;2023-02-28T07:42:38;-0.30;99.90
23744;DHT22;12052;53.478;10.182;2023-02-28T07:45:04;-0.20;99.90
23744;DHT22;12052;53.478;10.182;2023-02-28T07:47:31;-0.10;99.90
23744;DHT22;12052;53.478;10.182;2023-02-28T07:49:57;0.10;99.90
23744;DHT22;12052;53.478;10.182;2023-02-28T07:52:23;0.20;99.90
23744;DHT22;12052;53.478;10.182;2023-02-28T07:54:50;0.30;99.90
23744;DHT22;12052;53.478;10.182;2023-02-28T07:57:16;0.40;99.90
23744;DHT22;12052;53.478;10.182;2023-02-28T07:59:41;0.40;99.90
23744;DHT22;12052;53.478;10.182;2023-02-28T08:02:15;0.50;99.90
23744;DHT22;12052;53.478;10.182;2023-02-28T08:04:41;0.50;99.90
23744;DHT22;12052;53.478;10.182;2023-02-28T08:07:06;0.60;99.90
23744;DHT22;12052;53.478;10.182;2023-02-28T08:09:33;0.70;99.90
23744;DHT22;12052;53.478;10.182;2023-02-28T08:11:59;0.80;99.90
23744;DHT22;12052;53.478;10.182;2023-02-28T08:14:25;0.90;99.90
23744;DHT22;12052;53.478;10.182;2023-02-28T08:16:51;1.00;99.90
23744;DHT22;12052;53.478;10.182;2023-02-28T08:19:16;1.10;99.90
23744;DHT22;12052;53.478;10.182;2023-02-28T08:21:42;1.20;99.90
23744;DHT22;12052;53.478;10.182;2023-02-28T08:24:08;1.30;99.90
23744;DHT22;12052;53.478;10.182;2023-02-28T08:26:33;1.40;99.90
23744;DHT22;12052;53.478;10.182;2023-02-28T08:28:59;1.60;99.90
23744;DHT22;12052;53.478;10.182;2023-02-28T08:31:25;1.60;99.90
23744;DHT22;12052;53.478;10.182;2023-02-28T08:33:51;1.80;99.90
23744;DHT22;12052;53.478;10.182;2023-02-28T08:36:19;1.90;99.90
23744;DHT22;12052;53.478;10.182;2023-02-28T08:38:45;2.00;99.90
23744;DHT22;12052;53.478;10.182;2023-02-28T08:41:13;2.10;99.90
23744;DHT22;12052;53.478;10.182;2023-02-28T08:43:39;2.20;99.90
23744;DHT22;12052;53.478;10.182;2023-02-28T08:46:06;2.30;99.90
23744;DHT22;12052;53.478;10.182;2023-02-28T08:48:33;2.40;99.90
23744;DHT22;12052;53.478;10.182;2023-02-28T08:51:09;2.50;99.90
23744;DHT22;12052;53.478;10.182;2023-02-28T08:53:36;2.50;99.90
23744;DHT22;12052;53.478;10.182;2023-02-28T08:56:05;2.60;99.90
23744;DHT22;12052;53.478;10.182;2023-02-28T08:58:32;2.70;99.90
23744;DHT22;12052;53.478;10.182;2023-02-28T09:00:57;2.80;99.90
23744;DHT22;12052;53.478;10.182;2023-02-28T09:03:24;2.90;99.90
23744;DHT22;12052;53.478;10.182;2023-02-28T09:05:58;3.00;99.90
23744;DHT22;12052;53.478;10.182;2023-02-28T09:08:39;3.10;99.90
23744;DHT22;12052;53.478;10.182;2023-02-28T09:11:07;3.20;99.90
23744;DHT22;12052;53.478;10.182;2023-02-28T09:14:00;3.40;99.90
23744;DHT22;12052;53.478;10.182;2023-02-28T09:16:40;3.50;99.90
23744;DHT22;12052;53.478;10.182;2023-02-28T09:19:13;3.60;99.90
23744;DHT22;12052;53.478;10.182;2023-02-28T09:21:58;3.90;99.90
23744;DHT22;12052;53.478;10.182;2023-02-28T09:24:24;4.00;99.90
23744;DHT22;12052;53.478;10.182;2023-02-28T09:26:50;4.20;99.90
23744;DHT22;12052;53.478;10.182;2023-02-28T09:29:16;4.40;99.90
23744;DHT22;12052;53.478;10.182;2023-02-28T09:31:42;4.70;99.90
23744;DHT22;12052;53.478;10.182;2023-02-28T09:34:09;4.70;99.90
23744;DHT22;12052;53.478;10.182;2023-02-28T09:36:35;4.90;99.90
23744;DHT22;12052;53.478;10.182;2023-02-28T09:39:02;5.20;99.90
23744;DHT22;12052;53.478;10.182;2023-02-28T09:41:32;5.30;99.90
23744;DHT22;12052;53.478;10.182;2023-02-28T09:44:05;5.60;99.90
23744;DHT22;12052;53.478;10.182;2023-02-28T09:50:35;6.10;99.90
23744;DHT22;12052;53.478;10.182;2023-02-28T09:54:02;6.40;99.90
23744;DHT22;12052;53.478;10.182;2023-02-28T09:57:05;6.40;99.90
23744;DHT22;12052;53.478;10.182;2023-02-28T10:05:11;6.80;99.90
23744;DHT22;12052;53.478;10.182;2023-02-28T10:11:35;6.70;99.90
23744;DHT22;12052;53.478;10.182;2023-02-28T10:25:20;6.80;99.90
23744;DHT22;12052;53.478;10.182;2023-02-28T10:27:46;7.30;99.90
23744;DHT22;12052;53.478;10.182;2023-02-28T10:30:19;7.20;99.90
23744;DHT22;12052;53.478;10.182;2023-02-28T10:33:53;7.40;99.90
23744;DHT22;12052;53.478;10.182;2023-02-28T10:37:03;7.70;99.90
23744;DHT22;12052;53.478;10.182;2023-02-28T10:43:34;8.30;99.90
23744;DHT22;12052;53.478;10.182;2023-02-28T10:46:21;8.00;99.90
23744;DHT22;12052;53.478;10.182;2023-02-28T10:49:27;8.20;99.90
23744;DHT22;12052;53.478;10.182;2023-02-28T10:52:38;8.40;99.90
23744;DHT22;12052;53.478;10.182;2023-02-28T10:55:24;8.80;99.90
23744;DHT22;12052;53.478;10.182;2023-02-28T10:57:51;8.70;99.90
23744;DHT22;12052;53.478;10.182;2023-02-28T11:00:23;8.20;99.90
23744;DHT22;12052;53.478;10.182;2023-02-28T11:02:51;7.70;99.90
23744;DHT22;12052;53.478;10.182;2023-02-28T11:05:31;7.60;99.90
23744;DHT22;12052;53.478;10.182;2023-02-28T11:08:20;7.40;99.90
23744;DHT22;12052;53.478;10.182;2023-02-28T11:10:58;7.20;99.90
23744;DHT22;12052;53.478;10.182;2023-02-28T11:14:14;6.90;99.90
23744;DHT22;12052;53.478;10.182;2023-02-28T11:17:34;6.80;99.90
23744;DHT22;12052;53.478;10.182;2023-02-28T11:20:58;6.90;99.90
23744;DHT22;12052;53.478;10.182;2023-02-28T11:24:36;6.90;99.90
23744;DHT22;12052;53.478;10.182;2023-02-28T11:27:44;7.20;99.90
23744;DHT22;12052;53.478;10.182;2023-02-28T11:30:40;7.40;99.90
23744;DHT22;12052;53.478;10.182;2023-02-28T11:33:54;7.20;99.90
23744;DHT22;12052;53.478;10.182;2023-02-28T11:37:30;7.40;99.90
23744;DHT22;12052;53.478;10.182;2023-02-28T11:40:36;7.30;99.90
23744;DHT22;12052;53.478;10.182;2023-02-28T11:43:46;7.40;99.90
23744;DHT22;12052;53.478;10.182;2023-02-28T11:46:44;7.40;99.90
23744;DHT22;12052;53.478;10.182;2023-02-28T11:49:50;7.40;99.90
23744;DHT22;12052;53.478;10.182;2023-02-28T11:52:43;7.20;99.90
23744;DHT22;12052;53.478;10.182;2023-02-28T11:58:03;7.10;99.90
23744;DHT22;12052;53.478;10.182;2023-02-28T12:08:58;7.20;99.90
23744;DHT22;12052;53.478;10.182;2023-02-28T12:11:54;7.30;99.90
23744;DHT22;12052;53.478;10.182;2023-02-28T12:15:02;7.30;99.90
23744;DHT22;12052;53.478;10.182;2023-02-28T12:18:17;7.30;99.90
23744;DHT22;12052;53.478;10.182;2023-02-28T12:21:18;7.30;99.90
23744;DHT22;12052;53.478;10.182;2023-02-28T12:27:15;7.30;99.90
23744;DHT22;12052;53.478;10.182;2023-02-28T12:29:46;7.40;99.90
23744;DHT22;12052;53.478;10.182;2023-02-28T12:32:32;7.20;99.90
23744;DHT22;12052;53.478;10.182;2023-02-28T12:35:32;7.10;99.90
23744;DHT22;12052;53.478;10.182;2023-02-28T12:38:24;7.10;99.90
23744;DHT22;12052;53.478;10.182;2023-02-28T12:41:23;6.90;99.90
23744;DHT22;12052;53.478;10.182;2023-02-28T12:44:00;7.00;99.90
23744;DHT22;12052;53.478;10.182;2023-02-28T12:46:34;7.00;99.90
23744;DHT22;12052;53.478;10.182;2023-02-28T12:49:36;7.10;99.90
23744;DHT22;12052;53.478;10.182;2023-02-28T12:52:23;7.00;99.90
23744;DHT22;12052;53.478;10.182;2023-02-28T12:57:50;7.20;99.90
23744;DHT22;12052;53.478;10.182;2023-02-28T13:00:46;7.10;99.90
23744;DHT22;12052;53.478;10.182;2023-02-28T13:09:16;7.10;99.90
23744;DHT22;12052;53.478;10.182;2023-02-28T13:11:46;7.10;99.90
23744;DHT22;12052;53.478;10.182;2023-02-28T13:17:13;7.20;99.90
23744;DHT22;12052;53.478;10.182;2023-02-28T13:19:57;7.20;99.90
23744;DHT22;12052;53.478;10.182;2023-02-28T13:22:52;7.10;99.90
23744;DHT22;12052;53.478;10.182;2023-02-28T13:28:59;7.20;99.90
23744;DHT22;12052;53.478;10.182;2023-02-28T13:31:26;7.10;99.90
23744;DHT22;12052;53.478;10.182;2023-02-28T13:37:29;7.20;99.90
23744;DHT22;12052;53.478;10.182;2023-02-28T13:40:32;7.10;99.90
23744;DHT22;12052;53.478;10.182;2023-02-28T13:49:32;7.20;99.90
23744;DHT22;12052;53.478;10.182;2023-02-28T13:52:27;7.30;99.90
23744;DHT22;12052;53.478;10.182;2023-02-28T14:07:32;7.30;99.90
23744;DHT22;12052;53.478;10.182;2023-02-28T14:10:06;7.20;99.90
23744;DHT22;12052;53.478;10.182;2023-02-28T14:16:02;7.30;99.90
23744;DHT22;12052;53.478;10.182;2023-02-28T14:18:36;7.20;99.90
23744;DHT22;12052;53.478;10.182;2023-02-28T14:21:23;7.10;99.90
23744;DHT22;12052;53.478;10.182;2023-02-28T14:38:47;7.00;99.90
23744;DHT22;12052;53.478;10.182;2023-02-28T14:41:52;7.00;99.90
23744;DHT22;12052;53.478;10.182;2023-02-28T14:44:55;7.00;99.90
23744;DHT22;12052;53.478;10.182;2023-02-28T14:48:19;7.00;99.90
23744;DHT22;12052;53.478;10.182;2023-02-28T14:51:36;7.00;99.90
23744;DHT22;12052;53.478;10.182;2023-02-28T14:54:14;7.00;99.90
23744;DHT22;12052;53.478;10.182;2023-02-28T14:56:40;7.00;99.90
23744;DHT22;12052;53.478;10.182;2023-02-28T14:59:33;6.90;99.90
23744;DHT22;12052;53.478;10.182;2023-02-28T15:02:23;6.90;99.90
23744;DHT22;12052;53.478;10.182;2023-02-28T15:08:26;6.90;99.90
23744;DHT22;12052;53.478;10.182;2023-02-28T15:14:32;6.90;99.90
23744;DHT22;12052;53.478;10.182;2023-02-28T15:17:42;6.80;99.90
23744;DHT22;12052;53.478;10.182;2023-02-28T15:20:32;6.80;99.90
23744;DHT22;12052;53.478;10.182;2023-02-28T15:22:59;6.80;99.90
23744;DHT22;12052;53.478;10.182;2023-02-28T15:25:26;6.80;99.90
23744;DHT22;12052;53.478;10.182;2023-02-28T15:27:56;6.70;99.90
23744;DHT22;12052;53.478;10.182;2023-02-28T15:30:28;6.80;99.90
23744;DHT22;12052;53.478;10.182;2023-02-28T15:33:23;6.70;99.90
23744;DHT22;12052;53.478;10.182;2023-02-28T15:35:49;6.70;99.90
23744;DHT22;12052;53.478;10.182;2023-02-28T15:40:46;6.70;99.90
23744;DHT22;12052;53.478;10.182;2023-02-28T15:43:33;6.60;99.90
23744;DHT22;12052;53.478;10.182;2023-02-28T15:45:59;6.50;99.90
23744;DHT22;12052;53.478;10.182;2023-02-28T15:51:21;6.50;99.90
23744;DHT22;12052;53.478;10.182;2023-02-28T15:53:51;6.50;99.90
23744;DHT22;12052;53.478;10.182;2023-02-28T15:56:29;6.50;99.90
23744;DHT22;12052;53.478;10.182;2023-02-28T15:59:00;6.40;99.90
23744;DHT22;12052;53.478;10.182;2023-02-28T16:01:32;6.30;99.90
23744;DHT22;12052;53.478;10.182;2023-02-28T16:04:04;6.30;99.90
23744;DHT22;12052;53.478;10.182;2023-02-28T16:06:35;6.30;99.90
23744;DHT22;12052;53.478;10.182;2023-02-28T16:09:03;6.20;99.90
23744;DHT22;12052;53.478;10.182;2023-02-28T16:11:37;6.20;99.90
23744;DHT22;12052;53.478;10.182;2023-02-28T16:14:04;6.20;99.90
23744;DHT22;12052;53.478;10.182;2023-02-28T16:16:31;6.20;99.90
23744;DHT22;12052;53.478;10.182;2023-02-28T16:18:57;6.10;99.90
23744;DHT22;12052;53.478;10.182;2023-02-28T16:21:23;6.10;99.90
23744;DHT22;12052;53.478;10.182;2023-02-28T16:23:50;6.10;99.90
23744;DHT22;12052;53.478;10.182;2023-02-28T16:26:22;6.10;99.90
23744;DHT22;12052;53.478;10.182;2023-02-28T16:28:48;6.00;99.90
23744;DHT22;12052;53.478;10.182;2023-02-28T16:31:14;6.00;99.90
23744;DHT22;12052;53.478;10.182;2023-02-28T16:33:42;5.90;99.90
23744;DHT22;12052;53.478;10.182;2023-02-28T16:36:21;5.90;99.90
23744;DHT22;12052;53.478;10.182;2023-02-28T16:38:50;5.80;99.90
23744;DHT22;12052;53.478;10.182;2023-02-28T16:41:24;5.80;99.90
23744;DHT22;12052;53.478;10.182;2023-02-28T16:43:52;5.80;99.90
23744;DHT22;12052;53.478;10.182;2023-02-28T16:46:20;5.70;99.90
23744;DHT22;12052;53.478;10.182;2023-02-28T16:48:46;5.70;99.90
23744;DHT22;12052;53.478;10.182;2023-02-28T16:51:15;5.60;99.90
23744;DHT22;12052;53.478;10.182;2023-02-28T16:53:41;5.50;99.90
23744;DHT22;12052;53.478;10.182;2023-02-28T16:56:18;5.40;99.90
23744;DHT22;12052;53.478;10.182;2023-02-28T16:58:44;5.40;99.90
23744;DHT22;12052;53.478;10.182;2023-02-28T17:01:10;5.20;99.90
23744;DHT22;12052;53.478;10.182;2023-02-28T17:03:36;5.20;99.90
23744;DHT22;12052;53.478;10.182;2023-02-28T17:06:03;5.00;99.90
23744;DHT22;12052;53.478;10.182;2023-02-28T17:08:29;5.00;99.90
23744;DHT22;12052;53.478;10.182;2023-02-28T17:10:57;4.90;99.90
23744;DHT22;12052;53.478;10.182;2023-02-28T17:13:23;4.80;99.90
23744;DHT22;12052;53.478;10.182;2023-02-28T17:15:49;4.70;99.90
23744;DHT22;12052;53.478;10.182;2023-02-28T17:18:17;4.60;99.90
23744;DHT22;12052;53.478;10.182;2023-02-28T17:20:44;4.60;99.90
23744;DHT22;12052;53.478;10.182;2023-02-28T17:23:11;4.50;99.90
23744;DHT22;12052;53.478;10.182;2023-02-28T17:25:36;4.40;99.90
23744;DHT22;12052;53.478;10.182;2023-02-28T17:28:03;4.30;99.90
23744;DHT22;12052;53.478;10.182;2023-02-28T17:30:28;4.20;99.90
23744;DHT22;12052;53.478;10.182;2023-02-28T17:32:55;4.10;99.90
23744;DHT22;12052;53.478;10.182;2023-02-28T17:35:22;4.00;99.90
23744;DHT22;12052;53.478;10.182;2023-02-28T17:37:47;4.00;99.90
23744;DHT22;12052;53.478;10.182;2023-02-28T17:40:21;3.90;99.90
23744;DHT22;12052;53.478;10.182;2023-02-28T17:42:47;3.80;99.90
23744;DHT22;12052;53.478;10.182;2023-02-28T17:45:14;3.70;99.90
23744;DHT22;12052;53.478;10.182;2023-02-28T17:47:40;3.70;99.90
23744;DHT22;12052;53.478;10.182;2023-02-28T17:50:14;3.60;99.90
23744;DHT22;12052;53.478;10.182;2023-02-28T17:52:40;3.50;99.90
23744;DHT22;12052;53.478;10.182;2023-02-28T17:55:06;3.40;99.90
23744;DHT22;12052;53.478;10.182;2023-02-28T17:57:31;3.40;99.90
23744;DHT22;12052;53.478;10.182;2023-02-28T17:59:57;3.30;99.90
23744;DHT22;12052;53.478;10.182;2023-02-28T18:02:23;3.20;99.90
23744;DHT22;12052;53.478;10.182;2023-02-28T18:04:49;3.20;99.90
23744;DHT22;12052;53.478;10.182;2023-02-28T18:07:14;3.10;99.90
23744;DHT22;12052;53.478;10.182;2023-02-28T18:09:40;3.10;99.90
23744;DHT22;12052;53.478;10.182;2023-02-28T18:12:06;3.00;99.90
23744;DHT22;12052;53.478;10.182;2023-02-28T18:14:32;3.00;99.90
23744;DHT22;12052;53.478;10.182;2023-02-28T18:16:57;2.80;99.90
23744;DHT22;12052;53.478;10.182;2023-02-28T18:19:23;2.70;99.90
23744;DHT22;12052;53.478;10.182;2023-02-28T18:21:51;2.70;99.90
23744;DHT22;12052;53.478;10.182;2023-02-28T18:24:18;2.70;99.90
23744;DHT22;12052;53.478;10.182;2023-02-28T18:26:44;2.60;99.90
23744;DHT22;12052;53.478;10.182;2023-02-28T18:29:17;2.60;99.90